createdAt,value
2019-03-18T00:04:29.290Z,3.95
2019-03-18T00:09:25.202Z,3.91
2019-03-18T00:14:21.114Z,3.90
2019-03-18T00:19:17.040Z,3.92
2019-03-18T00:24:21.193Z,3.90
2019-03-18T00:29:17.323Z,3.88
2019-03-18T00:34:13.203Z,3.82
2019-03-18T00:39:09.122Z,3.85
2019-03-18T00:44:05.052Z,3.81
2019-03-18T00:49:00.960Z,3.84
2019-03-18T00:54:02.097Z,3.85
2019-03-18T00:58:58.058Z,3.84
2019-03-18T01:03:54.030Z,3.82
2019-03-18T01:08:49.940Z,3.82
2019-03-18T01:13:45.848Z,3.77
2019-03-18T01:18:41.753Z,3.78
2019-03-18T01:23:37.658Z,3.84
2019-03-18T01:28:33.566Z,3.87
2019-03-18T01:33:29.475Z,3.87
2019-03-18T01:38:25.535Z,3.89
2019-03-18T01:43:21.479Z,3.90
2019-03-18T01:48:17.391Z,3.94
2019-03-18T01:53:13.308Z,3.92
2019-03-18T01:58:09.249Z,3.98
2019-03-18T02:03:05.155Z,4.02
2019-03-18T02:08:01.064Z,4.05
2019-03-18T02:12:57.022Z,4.09
2019-03-18T02:17:52.932Z,4.12
2019-03-18T02:22:48.837Z,4.23
2019-03-18T02:27:44.746Z,4.32
2019-03-18T02:32:40.659Z,4.35
2019-03-18T02:37:36.599Z,4.39
2019-03-18T02:42:32.507Z,4.41
2019-03-18T02:47:28.426Z,4.43
2019-03-18T02:52:24.609Z,4.46
2019-03-18T02:57:20.596Z,4.45
2019-03-18T03:02:16.509Z,4.26
2019-03-18T03:07:12.431Z,4.06
2019-03-18T03:12:08.340Z,3.94
2019-03-18T03:17:04.354Z,3.69
2019-03-18T03:22:00.262Z,3.60
2019-03-18T03:26:56.434Z,3.61
2019-03-18T03:31:52.404Z,3.64
2019-03-18T03:36:48.320Z,3.67
2019-03-18T03:41:44.252Z,3.74
2019-03-18T03:46:43.465Z,3.76
2019-03-18T03:51:37.954Z,3.78
2019-03-18T03:56:33.968Z,3.79
2019-03-18T04:01:29.970Z,3.80
2019-03-18T04:06:25.973Z,3.81
2019-03-18T04:11:21.885Z,3.78
2019-03-18T04:16:17.781Z,3.81
2019-03-18T04:21:13.683Z,3.80
2019-03-18T04:26:09.602Z,3.86
2019-03-18T04:31:05.598Z,3.83
2019-03-18T04:36:01.522Z,3.88
2019-03-18T04:40:57.541Z,3.89
2019-03-18T04:45:53.454Z,3.89
2019-03-18T04:50:49.363Z,3.94
2019-03-18T04:55:45.338Z,3.96
2019-03-18T05:00:41.248Z,3.93
2019-03-18T05:05:37.228Z,4.00
2019-03-18T05:10:33.147Z,4.04
2019-03-18T05:15:29.055Z,4.08
2019-03-18T05:20:24.967Z,4.08
2019-03-18T05:25:20.951Z,4.04
2019-03-18T05:30:16.874Z,4.06
2019-03-18T05:35:12.782Z,4.03
2019-03-18T05:40:08.898Z,4.05
2019-03-18T05:45:10.887Z,4.09
2019-03-18T05:50:14.785Z,4.06
2019-03-18T05:55:15.953Z,4.07
2019-03-18T06:00:14.001Z,4.09
2019-03-18T06:05:10.192Z,4.10
2019-03-18T06:10:08.459Z,4.11
2019-03-18T06:15:07.268Z,4.21
2019-03-18T06:20:06.178Z,4.07
2019-03-18T06:25:03.600Z,4.07
2019-03-18T06:29:59.556Z,4.09
2019-03-18T06:34:55.586Z,4.12
2019-03-18T06:39:51.495Z,4.15
2019-03-18T06:44:47.431Z,4.25
2019-03-18T06:49:43.363Z,4.35
2019-03-18T06:54:39.959Z,4.35
2019-03-18T06:59:35.931Z,4.41
2019-03-18T07:04:31.850Z,4.47
2019-03-18T07:09:27.760Z,4.54
2019-03-18T07:14:23.672Z,4.62
2019-03-18T07:19:19.614Z,4.68
2019-03-18T07:24:22.514Z,4.72
2019-03-18T07:29:18.515Z,4.80
2019-03-18T07:34:14.541Z,4.79
2019-03-18T07:39:10.450Z,4.88
2019-03-18T07:44:06.364Z,4.91
2019-03-18T07:49:02.395Z,4.94
2019-03-18T07:54:06.303Z,4.92
2019-03-18T07:59:02.318Z,5.07
2019-03-18T08:03:58.241Z,5.08
2019-03-18T08:08:54.150Z,5.24
2019-03-18T08:13:50.055Z,5.23
2019-03-18T08:18:45.966Z,5.38
2019-03-18T08:23:41.841Z,5.68
2019-03-18T08:28:37.747Z,5.74
2019-03-18T08:33:33.658Z,5.75
2019-03-18T08:38:29.569Z,5.69
2019-03-18T08:43:25.477Z,5.71
2019-03-18T08:48:21.413Z,5.94
2019-03-18T08:53:17.426Z,6.00
2019-03-18T08:58:13.370Z,6.20
2019-03-18T09:03:09.271Z,6.24
2019-03-18T09:08:05.180Z,6.28
2019-03-18T09:13:01.239Z,6.29
2019-03-18T09:17:57.682Z,6.38
2019-03-18T09:22:53.604Z,6.40
2019-03-18T09:27:49.517Z,6.64
2019-03-18T09:32:45.527Z,6.54
2019-03-18T09:37:41.558Z,6.62
2019-03-18T09:42:37.468Z,6.46
2019-03-18T09:47:33.372Z,6.40
2019-03-18T09:52:29.279Z,6.74
2019-03-18T09:57:26.533Z,7.03
2019-03-18T10:02:22.630Z,6.92
2019-03-18T10:07:18.536Z,7.27
2019-03-18T10:12:14.441Z,7.47
2019-03-18T10:17:10.383Z,7.46
2019-03-18T10:22:06.266Z,7.18
2019-03-18T10:27:02.178Z,7.13
2019-03-18T10:31:58.942Z,7.66
2019-03-18T10:36:54.862Z,7.65
2019-03-18T10:41:50.767Z,7.93
2019-03-18T10:46:46.677Z,7.86
2019-03-18T10:51:42.581Z,7.81
2019-03-18T10:56:41.121Z,7.59
2019-03-18T11:01:36.354Z,7.91
2019-03-18T11:06:32.261Z,8.75
2019-03-18T11:11:28.169Z,8.32
2019-03-18T11:16:24.086Z,8.56
2019-03-18T11:21:20.095Z,8.28
2019-03-18T11:26:16.034Z,8.15
2019-03-18T11:31:11.948Z,8.37
2019-03-18T11:36:07.857Z,8.13
2019-03-18T11:41:03.763Z,7.84
2019-03-18T11:45:59.674Z,7.64
2019-03-18T11:50:55.600Z,5.20
2019-03-18T11:55:51.579Z,4.80
2019-03-18T12:00:47.454Z,4.87
2019-03-18T12:05:43.459Z,5.03
2019-03-18T12:10:39.873Z,5.38
2019-03-18T12:15:36.665Z,5.65
2019-03-18T12:20:33.315Z,6.19
2019-03-18T12:25:29.303Z,6.34
2019-03-18T12:30:28.268Z,6.70
2019-03-18T12:35:24.175Z,6.66
2019-03-18T12:40:20.279Z,6.53
2019-03-18T12:45:17.393Z,6.96
2019-03-18T12:50:36.854Z,7.13
2019-03-18T12:55:21.376Z,7.14
2019-03-18T13:00:27.005Z,7.44
2019-03-18T13:05:23.149Z,7.90
2019-03-18T13:10:21.475Z,7.75
2019-03-18T13:15:18.573Z,7.52
2019-03-18T13:20:18.812Z,8.00
2019-03-18T13:25:15.017Z,8.11
2019-03-18T13:30:19.774Z,8.34
2019-03-18T13:35:15.809Z,8.16
2019-03-18T13:40:14.663Z,7.86
2019-03-18T13:45:13.553Z,7.11
2019-03-18T13:50:14.454Z,6.94
2019-03-18T13:55:10.479Z,6.79
2019-03-18T14:00:14.281Z,6.62
2019-03-18T14:05:10.419Z,6.65
2019-03-18T14:10:31.149Z,6.84
2019-03-18T14:15:27.157Z,6.89
2019-03-18T14:20:24.271Z,7.14
2019-03-18T14:25:20.248Z,7.27
2019-03-18T14:30:18.675Z,7.45
2019-03-18T14:35:14.718Z,7.47
2019-03-18T14:40:24.119Z,7.42
2019-03-18T14:45:23.374Z,7.67
2019-03-18T14:50:19.705Z,8.14
2019-03-18T14:55:16.750Z,7.97
2019-03-18T15:00:39.126Z,8.20
2019-03-18T15:05:36.966Z,8.11
2019-03-18T15:10:32.880Z,8.13
2019-03-18T15:15:28.808Z,8.44
2019-03-18T15:20:27.245Z,8.17
2019-03-18T15:25:27.854Z,8.38
2019-03-18T15:30:23.871Z,8.21
2019-03-18T15:35:19.819Z,7.96
2019-03-18T15:40:21.304Z,7.87
2019-03-18T15:45:21.083Z,7.88
2019-03-18T15:50:20.975Z,8.08
2019-03-18T15:55:17.738Z,8.12
2019-03-18T16:00:22.473Z,8.06
2019-03-18T16:05:18.489Z,8.15
2019-03-18T16:10:15.632Z,8.06
2019-03-18T16:15:13.319Z,8.04
2019-03-18T16:20:14.941Z,8.21
2019-03-18T16:25:11.040Z,8.20
2019-03-18T16:30:10.900Z,7.88
2019-03-18T16:35:09.233Z,7.85
2019-03-18T16:40:08.517Z,7.76
2019-03-18T16:45:10.300Z,7.68
2019-03-18T16:50:10.240Z,7.96
2019-03-18T16:55:10.429Z,7.58
2019-03-18T17:00:11.379Z,7.91
2019-03-18T17:05:08.366Z,7.70
2019-03-18T17:10:13.706Z,7.69
2019-03-18T17:15:11.027Z,7.33
2019-03-18T17:20:13.646Z,7.26
2019-03-18T17:25:19.432Z,7.04
2019-03-18T17:30:16.934Z,6.91
2019-03-18T17:35:13.058Z,6.89
2019-03-18T17:40:12.873Z,6.77
2019-03-18T17:45:13.447Z,6.62
2019-03-18T17:50:16.618Z,6.63
2019-03-18T17:55:19.311Z,6.56
2019-03-18T18:00:19.072Z,6.34
2019-03-18T18:05:15.085Z,6.28
2019-03-18T18:10:11.157Z,6.26
2019-03-18T18:15:08.361Z,6.12
2019-03-18T18:20:07.196Z,6.12
2019-03-18T18:25:07.772Z,6.01
2019-03-18T18:30:09.503Z,6.03
2019-03-18T18:35:09.357Z,5.86
2019-03-18T18:40:09.089Z,5.79
2019-03-18T18:45:06.809Z,5.69
2019-03-18T18:50:05.231Z,5.72
2019-03-18T18:55:07.447Z,5.65
2019-03-18T19:00:09.711Z,5.57
2019-03-18T19:05:08.537Z,5.36
2019-03-18T19:10:07.676Z,5.35
2019-03-18T19:15:07.368Z,5.19
2019-03-18T19:20:07.114Z,5.23
2019-03-18T19:25:07.215Z,5.24
2019-03-18T19:30:12.704Z,5.17
2019-03-18T19:35:08.768Z,5.14
2019-03-18T19:40:13.545Z,5.26
2019-03-18T19:45:11.366Z,5.10
2019-03-18T19:50:35.093Z,5.04
2019-03-18T19:55:31.780Z,4.90
2019-03-18T20:00:29.072Z,4.61
2019-03-18T20:05:25.123Z,4.00
2019-03-18T20:10:21.442Z,3.67
2019-03-18T20:15:18.157Z,3.36
2019-03-18T20:20:15.500Z,3.24
2019-03-18T20:25:12.472Z,3.15
2019-03-18T20:30:14.045Z,3.52
2019-03-18T20:35:15.584Z,3.28
2019-03-18T20:40:13.006Z,3.42
2019-03-18T20:45:17.092Z,3.39
2019-03-18T20:50:18.460Z,2.96
2019-03-18T20:55:15.276Z,3.49
2019-03-18T21:00:17.032Z,3.06
2019-03-18T21:05:12.937Z,2.58
2019-03-18T21:10:11.979Z,2.32
2019-03-18T21:15:10.822Z,2.32
2019-03-18T21:20:10.142Z,2.07
2019-03-18T21:25:06.760Z,2.42
2019-03-18T21:30:17.422Z,2.93
2019-03-18T21:35:13.340Z,2.42
2019-03-18T21:40:11.367Z,1.99
2019-03-18T21:45:10.390Z,2.24
2019-03-18T21:50:07.909Z,2.38
2019-03-18T21:55:06.219Z,1.97
2019-03-18T22:00:05.523Z,1.73
2019-03-18T22:05:01.540Z,1.38
2019-03-18T22:09:57.451Z,1.36
2019-03-18T22:14:53.374Z,1.23
2019-03-18T22:19:49.320Z,1.04
2019-03-18T22:24:45.972Z,1.01
2019-03-18T22:29:41.900Z,0.91
2019-03-18T22:34:37.814Z,0.67
2019-03-18T22:39:33.807Z,1.05
2019-03-18T22:44:29.740Z,1.42
2019-03-18T22:49:25.675Z,1.15
2019-03-18T22:54:24.425Z,1.39
2019-03-18T22:59:20.458Z,1.49
2019-03-18T23:04:16.476Z,1.37
2019-03-18T23:09:12.394Z,0.90
2019-03-18T23:14:08.344Z,0.61
2019-03-18T23:19:04.266Z,0.47
2019-03-18T23:24:03.669Z,0.45
2019-03-18T23:28:59.735Z,0.91
2019-03-18T23:33:55.684Z,1.09
2019-03-18T23:38:51.601Z,1.02
2019-03-18T23:43:47.515Z,0.48
2019-03-18T23:48:43.577Z,0.25
2019-03-18T23:53:40.039Z,0.25
2019-03-18T23:58:36.024Z,0.29
